CSAPA EDES-EDFE
Flight info
| Callsign | CSAPA |
|---|---|
| Flight time | 0h -4m |
| Altitude | 1300 |
| Route | EDES A5HIGHWAY DELTA EDFE |
| Aircraft | C152/L-V/N |
Departure
| Time | 2026-04-28 19:12 |
|---|---|
| Airport | August Euler Airfield (EDES) |
Arrival
| Time | 2026-04-28 19:08 |
|---|---|
| Airport | Frankfurt-Egelsbach Airport (EDFE) |
| Time | Latitude | Longitude | Altitude | Speed | Heading |
|---|---|---|---|---|---|
| 2026-04-28 19:08 | 49.85201 | 8.57855 | 363 ft | 0 kts | 73° |
| 2026-04-28 19:10 | 49.85201 | 8.57857 | 363 ft | 1 kts | 83° |
| 2026-04-28 19:11 | 49.85171 | 8.57878 | 363 ft | 8 kts | 151° |
| 2026-04-28 19:11 | 49.85165 | 8.57901 | 363 ft | 0 kts | 69° |
| 2026-04-28 19:11 | 49.85213 | 8.58122 | 364 ft | 51 kts | 74° |
| 2026-04-28 19:11 | 49.85343 | 8.58811 | 480 ft | 71 kts | 73° |
| 2026-04-28 19:12 | 49.85487 | 8.59549 | 691 ft | 72 kts | 72° |
| 2026-04-28 19:12 | 49.85548 | 8.60371 | 842 ft | 83 kts | 104° |
| 2026-04-28 19:12 | 49.85186 | 8.61051 | 1032 ft | 88 kts | 152° |
| 2026-04-28 19:12 | 49.84589 | 8.61408 | 1192 ft | 91 kts | 164° |
| 2026-04-28 19:13 | 49.83955 | 8.61304 | 1291 ft | 97 kts | 207° |
| 2026-04-28 19:13 | 49.83513 | 8.60521 | 1302 ft | 100 kts | 246° |
| 2026-04-28 19:13 | 49.83228 | 8.59584 | 1408 ft | 96 kts | 245° |
| 2026-04-28 19:13 | 49.82942 | 8.58601 | 1367 ft | 103 kts | 246° |
| 2026-04-28 19:14 | 49.82666 | 8.57592 | 1354 ft | 102 kts | 248° |
| 2026-04-28 19:14 | 49.82456 | 8.56560 | 1362 ft | 98 kts | 264° |
| 2026-04-28 19:14 | 49.82583 | 8.55532 | 1322 ft | 103 kts | 296° |
| 2026-04-28 19:14 | 49.83074 | 8.54737 | 1262 ft | 103 kts | 332° |
| 2026-04-28 19:15 | 49.83758 | 8.54442 | 1225 ft | 102 kts | 355° |
| 2026-04-28 19:15 | 49.84394 | 8.54843 | 1155 ft | 104 kts | 44° |
| 2026-04-28 19:15 | 49.84749 | 8.55788 | 1104 ft | 103 kts | 68° |
| 2026-04-28 19:15 | 49.84903 | 8.56495 | 1081 ft | 103 kts | 73° |
| 2026-04-28 19:16 | 49.85128 | 8.57895 | 1084 ft | 100 kts | 78° |
| 2026-04-28 19:16 | 49.85260 | 8.58967 | 1099 ft | 103 kts | 80° |
| 2026-04-28 19:16 | 49.85408 | 8.60052 | 1170 ft | 97 kts | 61° |
| 2026-04-28 19:16 | 49.85984 | 8.60398 | 1123 ft | 105 kts | 346° |
| 2026-04-28 19:17 | 49.86708 | 8.60170 | 1079 ft | 103 kts | 354° |
| 2026-04-28 19:17 | 49.87412 | 8.60175 | 1131 ft | 103 kts | 4° |
| 2026-04-28 19:17 | 49.88122 | 8.60239 | 1155 ft | 103 kts | 2° |
| 2026-04-28 19:17 | 49.88842 | 8.60329 | 1156 ft | 104 kts | 8° |
| 2026-04-28 19:18 | 49.89548 | 8.60537 | 1164 ft | 103 kts | 12° |
| 2026-04-28 19:18 | 49.90247 | 8.60794 | 1165 ft | 104 kts | 13° |
| 2026-04-28 19:18 | 49.90949 | 8.61055 | 1211 ft | 102 kts | 13° |
| 2026-04-28 19:18 | 49.91648 | 8.61271 | 1224 ft | 104 kts | 10° |
| 2026-04-28 19:19 | 49.92360 | 8.61439 | 1237 ft | 102 kts | 6° |
| 2026-04-28 19:19 | 49.93074 | 8.61478 | 1188 ft | 104 kts | 358° |
| 2026-04-28 19:19 | 49.93787 | 8.61387 | 1151 ft | 102 kts | 353° |
| 2026-04-28 19:19 | 49.94428 | 8.61233 | 1051 ft | 83 kts | 351° |
| 2026-04-28 19:20 | 49.94953 | 8.61094 | 913 ft | 72 kts | 349° |
| 2026-04-28 19:20 | 49.95441 | 8.60975 | 816 ft | 70 kts | 358° |
| 2026-04-28 19:20 | 49.95857 | 8.61259 | 745 ft | 66 kts | 54° |
| 2026-04-28 19:20 | 49.95989 | 8.61950 | 580 ft | 69 kts | 85° |
| 2026-04-28 19:21 | 49.96016 | 8.62679 | 477 ft | 66 kts | 86° |
| 2026-04-28 19:21 | 49.96049 | 8.63374 | 389 ft | 57 kts | 86° |
| 2026-04-28 19:21 | 49.96071 | 8.63881 | 388 ft | 38 kts | 86° |
| 2026-04-28 19:21 | 49.96089 | 8.64254 | 388 ft | 32 kts | 85° |
| 2026-04-28 19:22 | 49.96106 | 8.64471 | 388 ft | 7 kts | 46° |
| 2026-04-28 19:22 | 49.96131 | 8.64492 | 388 ft | 6 kts | 26° |
| 2026-04-28 19:22 | 49.96200 | 8.64534 | 388 ft | 9 kts | 357° |
| 2026-04-28 19:22 | 49.96264 | 8.64526 | 388 ft | 9 kts | 355° |
| 2026-04-28 19:23 | 49.96330 | 8.64518 | 388 ft | 10 kts | 355° |
| 2026-04-28 19:23 | 49.96347 | 8.64547 | 388 ft | 3 kts | 108° |
| 2026-04-28 19:23 | 49.96331 | 8.64598 | 388 ft | 5 kts | 137° |
| 2026-04-28 19:23 | 49.96300 | 8.64607 | 388 ft | 5 kts | 175° |
| 2026-04-28 19:24 | 49.96270 | 8.64576 | 388 ft | 6 kts | 262° |
| 2026-04-28 19:24 | 49.96269 | 8.64573 | 388 ft | 0 kts | 265° |